sensor_id;sensor_type;location;lat;lon;timestamp;temperature;humidity
24638;DHT22;12773;50.162;8.548;2022-07-29T00:00:33;24.20;55.90
24638;DHT22;12773;50.162;8.548;2022-07-29T00:03:21;24.30;56.00
24638;DHT22;12773;50.162;8.548;2022-07-29T00:06:08;24.30;55.80
24638;DHT22;12773;50.162;8.548;2022-07-29T00:08:56;24.30;56.00
24638;DHT22;12773;50.162;8.548;2022-07-29T00:11:43;24.30;56.10
24638;DHT22;12773;50.162;8.548;2022-07-29T00:14:31;24.40;56.00
24638;DHT22;12773;50.162;8.548;2022-07-29T00:17:18;24.40;56.70
24638;DHT22;12773;50.162;8.548;2022-07-29T00:20:07;24.40;55.60
24638;DHT22;12773;50.162;8.548;2022-07-29T00:22:54;24.40;55.60
24638;DHT22;12773;50.162;8.548;2022-07-29T00:25:42;24.50;55.70
24638;DHT22;12773;50.162;8.548;2022-07-29T00:28:29;24.40;55.60
24638;DHT22;12773;50.162;8.548;2022-07-29T00:31:16;24.40;55.80
24638;DHT22;12773;50.162;8.548;2022-07-29T00:34:04;24.40;58.00
24638;DHT22;12773;50.162;8.548;2022-07-29T00:39:53;24.30;62.10
24638;DHT22;12773;50.162;8.548;2022-07-29T00:42:45;24.30;63.40
24638;DHT22;12773;50.162;8.548;2022-07-29T00:45:33;24.20;62.90
24638;DHT22;12773;50.162;8.548;2022-07-29T00:48:20;24.10;65.00
24638;DHT22;12773;50.162;8.548;2022-07-29T00:51:08;24.10;63.00
24638;DHT22;12773;50.162;8.548;2022-07-29T00:53:56;24.00;63.60
24638;DHT22;12773;50.162;8.548;2022-07-29T00:56:44;23.90;65.70
24638;DHT22;12773;50.162;8.548;2022-07-29T00:59:31;23.80;66.40
24638;DHT22;12773;50.162;8.548;2022-07-29T01:02:20;23.60;65.80
24638;DHT22;12773;50.162;8.548;2022-07-29T01:05:08;23.50;66.20
24638;DHT22;12773;50.162;8.548;2022-07-29T01:07:57;23.40;67.60
24638;DHT22;12773;50.162;8.548;2022-07-29T01:10:46;23.30;69.20
24638;DHT22;12773;50.162;8.548;2022-07-29T01:13:34;23.10;69.10
24638;DHT22;12773;50.162;8.548;2022-07-29T01:16:32;23.10;69.30
24638;DHT22;12773;50.162;8.548;2022-07-29T01:31:48;22.70;74.10
24638;DHT22;12773;50.162;8.548;2022-07-29T01:44:10;22.80;77.90
24638;DHT22;12773;50.162;8.548;2022-07-29T01:46:57;22.80;79.30
24638;DHT22;12773;50.162;8.548;2022-07-29T01:49:43;22.70;80.80
24638;DHT22;12773;50.162;8.548;2022-07-29T01:52:46;22.70;80.20
24638;DHT22;12773;50.162;8.548;2022-07-29T01:55:36;22.70;77.20
24638;DHT22;12773;50.162;8.548;2022-07-29T01:58:25;22.80;77.40
24638;DHT22;12773;50.162;8.548;2022-07-29T02:01:15;22.60;78.50
24638;DHT22;12773;50.162;8.548;2022-07-29T02:04:04;22.50;81.20
24638;DHT22;12773;50.162;8.548;2022-07-29T02:06:54;22.40;83.00
24638;DHT22;12773;50.162;8.548;2022-07-29T02:09:44;22.40;84.70
24638;DHT22;12773;50.162;8.548;2022-07-29T02:12:33;22.40;84.90
24638;DHT22;12773;50.162;8.548;2022-07-29T02:15:24;22.40;85.70
24638;DHT22;12773;50.162;8.548;2022-07-29T02:18:18;22.40;84.80
24638;DHT22;12773;50.162;8.548;2022-07-29T02:21:03;22.40;82.70
24638;DHT22;12773;50.162;8.548;2022-07-29T02:23:53;22.50;81.10
24638;DHT22;12773;50.162;8.548;2022-07-29T02:26:43;22.60;80.90
24638;DHT22;12773;50.162;8.548;2022-07-29T02:29:32;22.60;81.50
24638;DHT22;12773;50.162;8.548;2022-07-29T02:32:22;22.70;81.60
24638;DHT22;12773;50.162;8.548;2022-07-29T02:35:12;22.90;82.00
24638;DHT22;12773;50.162;8.548;2022-07-29T02:38:02;22.90;82.70
24638;DHT22;12773;50.162;8.548;2022-07-29T02:41:13;22.80;84.50
24638;DHT22;12773;50.162;8.548;2022-07-29T02:44:12;22.70;84.40
24638;DHT22;12773;50.162;8.548;2022-07-29T02:50:19;22.70;91.00
24638;DHT22;12773;50.162;8.548;2022-07-29T02:53:22;22.60;91.60
24638;DHT22;12773;50.162;8.548;2022-07-29T02:56:11;22.50;93.10
24638;DHT22;12773;50.162;8.548;2022-07-29T02:59:03;22.40;94.70
24638;DHT22;12773;50.162;8.548;2022-07-29T03:01:50;22.30;98.60
24638;DHT22;12773;50.162;8.548;2022-07-29T03:04:40;22.00;99.90
24638;DHT22;12773;50.162;8.548;2022-07-29T03:11:17;21.70;99.90
24638;DHT22;12773;50.162;8.548;2022-07-29T03:14:07;21.70;99.90
24638;DHT22;12773;50.162;8.548;2022-07-29T03:16:55;21.60;99.90
24638;DHT22;12773;50.162;8.548;2022-07-29T03:19:43;21.60;99.90
24638;DHT22;12773;50.162;8.548;2022-07-29T03:22:31;21.70;99.90
24638;DHT22;12773;50.162;8.548;2022-07-29T03:25:20;21.80;99.90
24638;DHT22;12773;50.162;8.548;2022-07-29T03:28:07;21.70;99.90
24638;DHT22;12773;50.162;8.548;2022-07-29T03:30:55;21.80;99.90
24638;DHT22;12773;50.162;8.548;2022-07-29T03:33:42;21.70;99.90
24638;DHT22;12773;50.162;8.548;2022-07-29T03:36:29;21.80;99.90
24638;DHT22;12773;50.162;8.548;2022-07-29T03:39:20;21.80;99.90
24638;DHT22;12773;50.162;8.548;2022-07-29T03:42:10;21.90;99.90
24638;DHT22;12773;50.162;8.548;2022-07-29T03:44:59;21.90;99.90
24638;DHT22;12773;50.162;8.548;2022-07-29T03:47:53;21.70;99.90
24638;DHT22;12773;50.162;8.548;2022-07-29T03:50:42;21.50;99.90
24638;DHT22;12773;50.162;8.548;2022-07-29T03:53:30;21.40;99.90
24638;DHT22;12773;50.162;8.548;2022-07-29T03:56:25;21.10;99.90
24638;DHT22;12773;50.162;8.548;2022-07-29T03:59:09;20.70;99.90
24638;DHT22;12773;50.162;8.548;2022-07-29T04:01:58;20.70;99.90
24638;DHT22;12773;50.162;8.548;2022-07-29T04:04:46;20.60;99.90
24638;DHT22;12773;50.162;8.548;2022-07-29T04:07:33;20.60;99.90
24638;DHT22;12773;50.162;8.548;2022-07-29T04:10:20;20.70;99.90
24638;DHT22;12773;50.162;8.548;2022-07-29T04:13:10;20.70;99.90
24638;DHT22;12773;50.162;8.548;2022-07-29T04:15:58;20.70;99.90
24638;DHT22;12773;50.162;8.548;2022-07-29T04:18:45;20.70;99.90
24638;DHT22;12773;50.162;8.548;2022-07-29T04:21:38;20.70;99.90
24638;DHT22;12773;50.162;8.548;2022-07-29T04:24:25;20.60;99.90
24638;DHT22;12773;50.162;8.548;2022-07-29T04:27:13;20.40;99.90
24638;DHT22;12773;50.162;8.548;2022-07-29T04:30:00;20.40;99.90
24638;DHT22;12773;50.162;8.548;2022-07-29T04:32:48;20.40;99.90
24638;DHT22;12773;50.162;8.548;2022-07-29T04:35:37;20.30;99.90
24638;DHT22;12773;50.162;8.548;2022-07-29T04:38:26;20.30;99.90
24638;DHT22;12773;50.162;8.548;2022-07-29T04:41:13;20.30;99.90
24638;DHT22;12773;50.162;8.548;2022-07-29T04:44:02;20.20;99.90
24638;DHT22;12773;50.162;8.548;2022-07-29T04:46:52;20.30;99.90
24638;DHT22;12773;50.162;8.548;2022-07-29T04:49:39;20.40;99.90
24638;DHT22;12773;50.162;8.548;2022-07-29T04:52:27;20.40;99.90
24638;DHT22;12773;50.162;8.548;2022-07-29T04:55:14;20.50;99.90
24638;DHT22;12773;50.162;8.548;2022-07-29T04:58:02;20.40;99.90
24638;DHT22;12773;50.162;8.548;2022-07-29T05:00:50;20.40;99.90
24638;DHT22;12773;50.162;8.548;2022-07-29T05:03:37;20.40;99.90
24638;DHT22;12773;50.162;8.548;2022-07-29T05:06:25;20.40;99.90
24638;DHT22;12773;50.162;8.548;2022-07-29T05:09:12;20.40;99.90
24638;DHT22;12773;50.162;8.548;2022-07-29T05:12:00;20.30;99.90
24638;DHT22;12773;50.162;8.548;2022-07-29T05:14:48;20.40;99.90
24638;DHT22;12773;50.162;8.548;2022-07-29T05:17:35;20.40;99.90
24638;DHT22;12773;50.162;8.548;2022-07-29T05:20:23;20.50;99.90
24638;DHT22;12773;50.162;8.548;2022-07-29T05:23:12;20.50;99.90
24638;DHT22;12773;50.162;8.548;2022-07-29T05:26:01;20.60;99.90
24638;DHT22;12773;50.162;8.548;2022-07-29T05:28:48;20.70;99.90
24638;DHT22;12773;50.162;8.548;2022-07-29T05:31:35;20.80;99.90
24638;DHT22;12773;50.162;8.548;2022-07-29T05:34:23;20.80;99.90
24638;DHT22;12773;50.162;8.548;2022-07-29T05:37:11;20.90;99.90
24638;DHT22;12773;50.162;8.548;2022-07-29T05:39:59;21.00;99.90
24638;DHT22;12773;50.162;8.548;2022-07-29T05:42:47;21.00;99.90
24638;DHT22;12773;50.162;8.548;2022-07-29T05:45:35;21.00;99.90
24638;DHT22;12773;50.162;8.548;2022-07-29T05:48:24;21.20;99.90
24638;DHT22;12773;50.162;8.548;2022-07-29T05:51:11;21.20;99.90
24638;DHT22;12773;50.162;8.548;2022-07-29T05:53:58;21.20;99.90
24638;DHT22;12773;50.162;8.548;2022-07-29T05:56:45;21.30;99.90
24638;DHT22;12773;50.162;8.548;2022-07-29T05:59:37;21.40;99.90
24638;DHT22;12773;50.162;8.548;2022-07-29T06:02:25;21.50;99.90
24638;DHT22;12773;50.162;8.548;2022-07-29T06:05:12;21.60;99.90
24638;DHT22;12773;50.162;8.548;2022-07-29T06:08:02;21.60;99.90
24638;DHT22;12773;50.162;8.548;2022-07-29T06:10:51;21.60;99.90
24638;DHT22;12773;50.162;8.548;2022-07-29T06:13:38;21.80;99.90
24638;DHT22;12773;50.162;8.548;2022-07-29T06:16:26;21.90;99.90
24638;DHT22;12773;50.162;8.548;2022-07-29T06:19:15;22.00;99.90
24638;DHT22;12773;50.162;8.548;2022-07-29T06:22:03;22.10;99.90
24638;DHT22;12773;50.162;8.548;2022-07-29T06:24:50;22.10;99.90
24638;DHT22;12773;50.162;8.548;2022-07-29T06:27:38;22.30;99.90
24638;DHT22;12773;50.162;8.548;2022-07-29T06:30:25;22.40;99.90
24638;DHT22;12773;50.162;8.548;2022-07-29T06:33:18;22.60;99.80
24638;DHT22;12773;50.162;8.548;2022-07-29T06:36:06;22.70;99.60
24638;DHT22;12773;50.162;8.548;2022-07-29T06:38:53;22.90;99.50
24638;DHT22;12773;50.162;8.548;2022-07-29T06:41:41;23.10;98.90
24638;DHT22;12773;50.162;8.548;2022-07-29T06:44:30;23.10;98.60
24638;DHT22;12773;50.162;8.548;2022-07-29T06:47:20;23.10;98.40
24638;DHT22;12773;50.162;8.548;2022-07-29T06:50:07;23.20;98.50
24638;DHT22;12773;50.162;8.548;2022-07-29T06:52:57;23.20;98.60
24638;DHT22;12773;50.162;8.548;2022-07-29T06:55:44;23.40;98.50
24638;DHT22;12773;50.162;8.548;2022-07-29T06:58:31;23.50;98.40
24638;DHT22;12773;50.162;8.548;2022-07-29T07:01:19;23.60;98.20
24638;DHT22;12773;50.162;8.548;2022-07-29T07:04:07;23.80;98.00
24638;DHT22;12773;50.162;8.548;2022-07-29T07:06:55;23.70;96.40
24638;DHT22;12773;50.162;8.548;2022-07-29T07:09:42;23.90;97.10
24638;DHT22;12773;50.162;8.548;2022-07-29T07:12:29;23.90;94.90
24638;DHT22;12773;50.162;8.548;2022-07-29T07:15:17;24.00;94.50
24638;DHT22;12773;50.162;8.548;2022-07-29T07:18:06;24.10;94.30
24638;DHT22;12773;50.162;8.548;2022-07-29T07:20:54;24.20;94.50
24638;DHT22;12773;50.162;8.548;2022-07-29T07:23:41;24.30;93.20
24638;DHT22;12773;50.162;8.548;2022-07-29T07:26:29;24.20;93.60
24638;DHT22;12773;50.162;8.548;2022-07-29T07:29:16;24.20;92.60
24638;DHT22;12773;50.162;8.548;2022-07-29T07:32:04;24.00;92.30
24638;DHT22;12773;50.162;8.548;2022-07-29T07:34:52;24.00;92.30
24638;DHT22;12773;50.162;8.548;2022-07-29T07:37:39;24.20;92.40
24638;DHT22;12773;50.162;8.548;2022-07-29T07:40:27;24.40;92.40
24638;DHT22;12773;50.162;8.548;2022-07-29T07:43:14;24.40;92.00
24638;DHT22;12773;50.162;8.548;2022-07-29T07:46:01;24.40;91.10
24638;DHT22;12773;50.162;8.548;2022-07-29T07:48:48;24.70;91.60
24638;DHT22;12773;50.162;8.548;2022-07-29T07:51:36;24.80;90.60
24638;DHT22;12773;50.162;8.548;2022-07-29T07:54:24;25.00;90.50
24638;DHT22;12773;50.162;8.548;2022-07-29T07:57:12;24.90;88.90
24638;DHT22;12773;50.162;8.548;2022-07-29T08:00:01;25.00;87.70
24638;DHT22;12773;50.162;8.548;2022-07-29T08:02:48;25.10;88.40
24638;DHT22;12773;50.162;8.548;2022-07-29T08:05:36;25.10;88.40
24638;DHT22;12773;50.162;8.548;2022-07-29T08:08:25;25.30;88.70
24638;DHT22;12773;50.162;8.548;2022-07-29T08:11:12;25.40;87.50
24638;DHT22;12773;50.162;8.548;2022-07-29T08:13:59;25.60;85.00
24638;DHT22;12773;50.162;8.548;2022-07-29T08:16:47;25.30;85.20
24638;DHT22;12773;50.162;8.548;2022-07-29T08:19:35;25.20;84.30
24638;DHT22;12773;50.162;8.548;2022-07-29T08:22:23;25.30;84.40
24638;DHT22;12773;50.162;8.548;2022-07-29T08:25:11;25.40;85.10
24638;DHT22;12773;50.162;8.548;2022-07-29T08:28:00;25.60;83.20
24638;DHT22;12773;50.162;8.548;2022-07-29T08:30:47;25.70;85.00
24638;DHT22;12773;50.162;8.548;2022-07-29T08:33:36;25.90;84.10
24638;DHT22;12773;50.162;8.548;2022-07-29T08:36:23;26.10;84.20
24638;DHT22;12773;50.162;8.548;2022-07-29T08:39:11;26.20;82.80
24638;DHT22;12773;50.162;8.548;2022-07-29T08:41:58;26.20;81.20
24638;DHT22;12773;50.162;8.548;2022-07-29T08:44:46;26.30;81.70
24638;DHT22;12773;50.162;8.548;2022-07-29T08:47:33;26.40;81.30
24638;DHT22;12773;50.162;8.548;2022-07-29T08:50:23;26.60;79.30
24638;DHT22;12773;50.162;8.548;2022-07-29T08:53:13;26.50;77.70
24638;DHT22;12773;50.162;8.548;2022-07-29T08:56:01;26.40;79.00
24638;DHT22;12773;50.162;8.548;2022-07-29T08:58:49;26.60;80.30
24638;DHT22;12773;50.162;8.548;2022-07-29T09:01:38;26.80;81.00
24638;DHT22;12773;50.162;8.548;2022-07-29T09:04:30;27.00;78.10
24638;DHT22;12773;50.162;8.548;2022-07-29T09:07:19;26.90;79.00
24638;DHT22;12773;50.162;8.548;2022-07-29T09:10:06;26.90;78.10
24638;DHT22;12773;50.162;8.548;2022-07-29T09:12:57;27.10;79.80
24638;DHT22;12773;50.162;8.548;2022-07-29T09:15:46;27.10;79.10
24638;DHT22;12773;50.162;8.548;2022-07-29T09:18:38;27.20;76.70
24638;DHT22;12773;50.162;8.548;2022-07-29T09:21:27;27.30;76.60
24638;DHT22;12773;50.162;8.548;2022-07-29T09:24:42;27.40;75.90
24638;DHT22;12773;50.162;8.548;2022-07-29T09:27:29;27.60;75.70
24638;DHT22;12773;50.162;8.548;2022-07-29T09:30:16;27.40;75.40
24638;DHT22;12773;50.162;8.548;2022-07-29T09:33:11;27.70;74.90
24638;DHT22;12773;50.162;8.548;2022-07-29T09:36:03;28.00;76.70
24638;DHT22;12773;50.162;8.548;2022-07-29T09:39:01;28.20;77.90
24638;DHT22;12773;50.162;8.548;2022-07-29T09:41:51;28.30;75.80
24638;DHT22;12773;50.162;8.548;2022-07-29T09:44:46;28.60;76.20
24638;DHT22;12773;50.162;8.548;2022-07-29T09:47:43;28.70;71.40
24638;DHT22;12773;50.162;8.548;2022-07-29T09:50:43;29.00;73.10
24638;DHT22;12773;50.162;8.548;2022-07-29T09:53:37;28.90;70.30
24638;DHT22;12773;50.162;8.548;2022-07-29T09:56:40;28.80;69.90
24638;DHT22;12773;50.162;8.548;2022-07-29T09:59:27;28.80;71.20
24638;DHT22;12773;50.162;8.548;2022-07-29T10:02:15;29.00;73.60
24638;DHT22;12773;50.162;8.548;2022-07-29T10:05:26;29.50;73.00
24638;DHT22;12773;50.162;8.548;2022-07-29T10:07:59;29.90;71.40
24638;DHT22;12773;50.162;8.548;2022-07-29T10:10:46;30.30;70.40
24638;DHT22;12773;50.162;8.548;2022-07-29T10:13:34;30.60;68.80
24638;DHT22;12773;50.162;8.548;2022-07-29T10:16:21;30.80;65.20
24638;DHT22;12773;50.162;8.548;2022-07-29T10:19:09;29.90;65.60
24638;DHT22;12773;50.162;8.548;2022-07-29T10:21:58;29.80;66.00
24638;DHT22;12773;50.162;8.548;2022-07-29T10:24:46;30.00;65.00
24638;DHT22;12773;50.162;8.548;2022-07-29T10:27:35;29.90;67.30
24638;DHT22;12773;50.162;8.548;2022-07-29T10:30:25;29.90;65.00
24638;DHT22;12773;50.162;8.548;2022-07-29T10:39:38;30.00;67.00
24638;DHT22;12773;50.162;8.548;2022-07-29T10:42:25;30.60;68.20
24638;DHT22;12773;50.162;8.548;2022-07-29T10:45:17;30.40;63.40
24638;DHT22;12773;50.162;8.548;2022-07-29T10:48:05;30.50;65.00
24638;DHT22;12773;50.162;8.548;2022-07-29T10:51:04;30.70;64.20
24638;DHT22;12773;50.162;8.548;2022-07-29T10:53:53;31.00;62.30
24638;DHT22;12773;50.162;8.548;2022-07-29T10:56:42;30.90;62.60
24638;DHT22;12773;50.162;8.548;2022-07-29T10:59:31;30.70;62.10
24638;DHT22;12773;50.162;8.548;2022-07-29T11:05:25;30.60;64.90
24638;DHT22;12773;50.162;8.548;2022-07-29T11:08:18;30.60;63.60
24638;DHT22;12773;50.162;8.548;2022-07-29T11:14:13;31.40;62.80
24638;DHT22;12773;50.162;8.548;2022-07-29T11:17:07;31.50;64.70
24638;DHT22;12773;50.162;8.548;2022-07-29T11:20:17;31.50;62.60
24638;DHT22;12773;50.162;8.548;2022-07-29T11:22:43;31.60;64.10
24638;DHT22;12773;50.162;8.548;2022-07-29T11:25:32;32.00;63.20
24638;DHT22;12773;50.162;8.548;2022-07-29T11:28:22;32.30;61.90
24638;DHT22;12773;50.162;8.548;2022-07-29T11:31:11;32.30;59.70
24638;DHT22;12773;50.162;8.548;2022-07-29T11:34:28;32.00;60.90
24638;DHT22;12773;50.162;8.548;2022-07-29T11:37:18;32.10;61.90
24638;DHT22;12773;50.162;8.548;2022-07-29T11:40:14;31.50;59.60
24638;DHT22;12773;50.162;8.548;2022-07-29T11:42:58;31.40;62.50
24638;DHT22;12773;50.162;8.548;2022-07-29T11:45:46;31.10;59.90
24638;DHT22;12773;50.162;8.548;2022-07-29T11:48:33;31.20;60.50
24638;DHT22;12773;50.162;8.548;2022-07-29T11:51:21;31.10;60.50
24638;DHT22;12773;50.162;8.548;2022-07-29T11:54:12;31.40;63.40
24638;DHT22;12773;50.162;8.548;2022-07-29T11:57:02;31.60;62.80
24638;DHT22;12773;50.162;8.548;2022-07-29T11:59:51;32.30;63.80
24638;DHT22;12773;50.162;8.548;2022-07-29T12:02:40;33.00;62.40
24638;DHT22;12773;50.162;8.548;2022-07-29T12:05:42;33.40;58.40
24638;DHT22;12773;50.162;8.548;2022-07-29T12:08:39;33.60;59.20
24638;DHT22;12773;50.162;8.548;2022-07-29T12:11:25;33.30;58.50
24638;DHT22;12773;50.162;8.548;2022-07-29T12:14:30;33.40;59.40
24638;DHT22;12773;50.162;8.548;2022-07-29T12:17:26;33.50;58.20
24638;DHT22;12773;50.162;8.548;2022-07-29T12:20:27;33.30;58.30
24638;DHT22;12773;50.162;8.548;2022-07-29T12:23:15;32.80;57.10
24638;DHT22;12773;50.162;8.548;2022-07-29T12:26:06;32.30;58.20
24638;DHT22;12773;50.162;8.548;2022-07-29T12:28:56;32.20;58.00
24638;DHT22;12773;50.162;8.548;2022-07-29T12:31:45;32.20;57.70
24638;DHT22;12773;50.162;8.548;2022-07-29T12:34:33;32.50;58.70
24638;DHT22;12773;50.162;8.548;2022-07-29T12:37:20;32.20;57.70
24638;DHT22;12773;50.162;8.548;2022-07-29T12:40:11;32.40;58.20
24638;DHT22;12773;50.162;8.548;2022-07-29T12:43:09;32.40;58.00
24638;DHT22;12773;50.162;8.548;2022-07-29T12:45:57;32.30;58.30
24638;DHT22;12773;50.162;8.548;2022-07-29T12:48:45;32.50;57.60
24638;DHT22;12773;50.162;8.548;2022-07-29T12:51:35;32.40;59.10
24638;DHT22;12773;50.162;8.548;2022-07-29T12:54:23;32.90;58.20
24638;DHT22;12773;50.162;8.548;2022-07-29T12:57:10;33.20;58.80
24638;DHT22;12773;50.162;8.548;2022-07-29T13:00:08;33.50;56.70
24638;DHT22;12773;50.162;8.548;2022-07-29T13:02:58;33.90;57.70
24638;DHT22;12773;50.162;8.548;2022-07-29T13:05:45;33.90;56.80
24638;DHT22;12773;50.162;8.548;2022-07-29T13:08:34;34.10;57.10
24638;DHT22;12773;50.162;8.548;2022-07-29T13:11:30;34.40;56.50
24638;DHT22;12773;50.162;8.548;2022-07-29T13:14:31;34.60;55.40
24638;DHT22;12773;50.162;8.548;2022-07-29T13:17:22;34.80;55.40
24638;DHT22;12773;50.162;8.548;2022-07-29T13:20:11;34.80;53.90
24638;DHT22;12773;50.162;8.548;2022-07-29T13:23:00;34.60;54.80
24638;DHT22;12773;50.162;8.548;2022-07-29T13:25:47;34.40;55.10
24638;DHT22;12773;50.162;8.548;2022-07-29T13:28:35;34.30;54.30
24638;DHT22;12773;50.162;8.548;2022-07-29T13:31:23;34.40;54.00
24638;DHT22;12773;50.162;8.548;2022-07-29T13:34:12;34.80;54.80
24638;DHT22;12773;50.162;8.548;2022-07-29T13:36:59;35.00;53.20
24638;DHT22;12773;50.162;8.548;2022-07-29T13:39:47;35.00;52.10
24638;DHT22;12773;50.162;8.548;2022-07-29T13:42:36;35.10;53.40
24638;DHT22;12773;50.162;8.548;2022-07-29T13:45:23;35.30;52.80
24638;DHT22;12773;50.162;8.548;2022-07-29T13:48:12;35.10;51.40
24638;DHT22;12773;50.162;8.548;2022-07-29T13:51:00;34.60;51.40
24638;DHT22;12773;50.162;8.548;2022-07-29T13:53:47;34.40;52.70
24638;DHT22;12773;50.162;8.548;2022-07-29T13:56:35;34.00;51.70
24638;DHT22;12773;50.162;8.548;2022-07-29T13:59:22;33.50;52.40
24638;DHT22;12773;50.162;8.548;2022-07-29T14:02:10;33.10;52.90
24638;DHT22;12773;50.162;8.548;2022-07-29T14:05:00;32.70;53.80
24638;DHT22;12773;50.162;8.548;2022-07-29T14:07:49;32.40;54.00
24638;DHT22;12773;50.162;8.548;2022-07-29T14:10:36;31.90;54.50
24638;DHT22;12773;50.162;8.548;2022-07-29T14:13:23;31.00;59.00
24638;DHT22;12773;50.162;8.548;2022-07-29T14:16:12;30.30;61.20
24638;DHT22;12773;50.162;8.548;2022-07-29T14:18:59;30.00;60.90
24638;DHT22;12773;50.162;8.548;2022-07-29T14:21:47;29.60;61.10
24638;DHT22;12773;50.162;8.548;2022-07-29T14:24:36;29.30;61.30
24638;DHT22;12773;50.162;8.548;2022-07-29T14:27:24;29.30;62.20
24638;DHT22;12773;50.162;8.548;2022-07-29T14:30:16;29.30;64.00
24638;DHT22;12773;50.162;8.548;2022-07-29T14:33:03;29.50;66.90
24638;DHT22;12773;50.162;8.548;2022-07-29T14:35:51;29.20;70.90
24638;DHT22;12773;50.162;8.548;2022-07-29T14:38:38;29.10;73.70
24638;DHT22;12773;50.162;8.548;2022-07-29T14:41:27;29.00;74.80
24638;DHT22;12773;50.162;8.548;2022-07-29T14:44:14;28.80;76.00
24638;DHT22;12773;50.162;8.548;2022-07-29T14:47:01;28.70;77.40
24638;DHT22;12773;50.162;8.548;2022-07-29T14:49:51;28.70;76.10
24638;DHT22;12773;50.162;8.548;2022-07-29T14:52:39;28.50;75.10
24638;DHT22;12773;50.162;8.548;2022-07-29T14:55:26;28.60;73.90
24638;DHT22;12773;50.162;8.548;2022-07-29T14:58:14;28.50;70.80
24638;DHT22;12773;50.162;8.548;2022-07-29T15:01:02;28.40;67.30
24638;DHT22;12773;50.162;8.548;2022-07-29T15:03:53;28.40;66.80
24638;DHT22;12773;50.162;8.548;2022-07-29T15:06:43;28.70;65.40
24638;DHT22;12773;50.162;8.548;2022-07-29T15:09:31;28.70;60.90
24638;DHT22;12773;50.162;8.548;2022-07-29T15:12:24;28.80;61.80
24638;DHT22;12773;50.162;8.548;2022-07-29T15:15:10;28.80;61.90
24638;DHT22;12773;50.162;8.548;2022-07-29T15:17:58;28.90;62.30
24638;DHT22;12773;50.162;8.548;2022-07-29T15:20:46;28.80;62.20
24638;DHT22;12773;50.162;8.548;2022-07-29T15:23:34;28.80;63.60
24638;DHT22;12773;50.162;8.548;2022-07-29T15:26:25;28.60;62.80
24638;DHT22;12773;50.162;8.548;2022-07-29T15:29:12;28.40;62.90
24638;DHT22;12773;50.162;8.548;2022-07-29T15:32:00;28.30;63.80
24638;DHT22;12773;50.162;8.548;2022-07-29T15:34:48;28.40;63.10
24638;DHT22;12773;50.162;8.548;2022-07-29T15:37:37;28.40;63.30
24638;DHT22;12773;50.162;8.548;2022-07-29T15:40:25;28.40;64.40
24638;DHT22;12773;50.162;8.548;2022-07-29T15:43:13;28.50;63.60
24638;DHT22;12773;50.162;8.548;2022-07-29T15:46:01;28.60;64.10
24638;DHT22;12773;50.162;8.548;2022-07-29T15:49:07;28.70;64.90
24638;DHT22;12773;50.162;8.548;2022-07-29T15:51:54;28.40;66.70
24638;DHT22;12773;50.162;8.548;2022-07-29T15:54:43;28.50;68.00
24638;DHT22;12773;50.162;8.548;2022-07-29T15:57:31;28.40;68.40
24638;DHT22;12773;50.162;8.548;2022-07-29T16:00:18;28.40;69.50
24638;DHT22;12773;50.162;8.548;2022-07-29T16:03:07;28.30;70.50
24638;DHT22;12773;50.162;8.548;2022-07-29T16:05:54;28.20;70.70
24638;DHT22;12773;50.162;8.548;2022-07-29T16:08:42;28.00;72.20
24638;DHT22;12773;50.162;8.548;2022-07-29T16:11:30;27.80;73.40
24638;DHT22;12773;50.162;8.548;2022-07-29T16:14:17;27.80;73.60
24638;DHT22;12773;50.162;8.548;2022-07-29T16:17:04;27.90;73.00
24638;DHT22;12773;50.162;8.548;2022-07-29T16:19:52;27.70;81.00
24638;DHT22;12773;50.162;8.548;2022-07-29T16:22:39;27.30;88.20
24638;DHT22;12773;50.162;8.548;2022-07-29T16:25:27;27.10;88.10
24638;DHT22;12773;50.162;8.548;2022-07-29T16:28:16;27.00;96.10
24638;DHT22;12773;50.162;8.548;2022-07-29T16:31:04;27.00;98.50
24638;DHT22;12773;50.162;8.548;2022-07-29T16:33:54;27.20;97.00
24638;DHT22;12773;50.162;8.548;2022-07-29T16:36:42;27.20;99.90
24638;DHT22;12773;50.162;8.548;2022-07-29T16:39:31;27.20;99.90
24638;DHT22;12773;50.162;8.548;2022-07-29T16:42:18;27.20;99.90
24638;DHT22;12773;50.162;8.548;2022-07-29T16:45:08;27.10;99.90
24638;DHT22;12773;50.162;8.548;2022-07-29T16:47:56;27.40;99.90
24638;DHT22;12773;50.162;8.548;2022-07-29T16:50:45;27.80;99.90
24638;DHT22;12773;50.162;8.548;2022-07-29T16:53:33;28.20;99.90
24638;DHT22;12773;50.162;8.548;2022-07-29T16:56:20;28.60;99.90
24638;DHT22;12773;50.162;8.548;2022-07-29T16:59:07;28.60;99.90
24638;DHT22;12773;50.162;8.548;2022-07-29T17:01:54;28.70;99.90
24638;DHT22;12773;50.162;8.548;2022-07-29T17:04:42;28.60;99.90
24638;DHT22;12773;50.162;8.548;2022-07-29T17:07:29;28.30;99.90
24638;DHT22;12773;50.162;8.548;2022-07-29T17:10:17;28.10;97.90
24638;DHT22;12773;50.162;8.548;2022-07-29T17:13:05;27.90;98.00
24638;DHT22;12773;50.162;8.548;2022-07-29T17:15:54;27.60;99.00
24638;DHT22;12773;50.162;8.548;2022-07-29T17:18:44;27.40;99.70
24638;DHT22;12773;50.162;8.548;2022-07-29T17:21:32;27.30;99.50
24638;DHT22;12773;50.162;8.548;2022-07-29T17:24:19;27.20;99.90
24638;DHT22;12773;50.162;8.548;2022-07-29T17:27:06;27.10;99.90
24638;DHT22;12773;50.162;8.548;2022-07-29T17:29:54;27.00;99.90
24638;DHT22;12773;50.162;8.548;2022-07-29T17:32:41;26.80;99.90
24638;DHT22;12773;50.162;8.548;2022-07-29T17:35:29;26.70;99.90
24638;DHT22;12773;50.162;8.548;2022-07-29T17:38:34;26.70;99.90
24638;DHT22;12773;50.162;8.548;2022-07-29T17:41:22;26.70;99.90
24638;DHT22;12773;50.162;8.548;2022-07-29T17:44:10;26.70;99.90
24638;DHT22;12773;50.162;8.548;2022-07-29T17:46:57;26.70;99.90
24638;DHT22;12773;50.162;8.548;2022-07-29T17:49:45;26.60;99.90
24638;DHT22;12773;50.162;8.548;2022-07-29T17:52:33;26.70;99.90
24638;DHT22;12773;50.162;8.548;2022-07-29T17:55:25;26.60;99.90
24638;DHT22;12773;50.162;8.548;2022-07-29T17:58:15;26.30;99.90
24638;DHT22;12773;50.162;8.548;2022-07-29T18:01:03;25.90;99.90
24638;DHT22;12773;50.162;8.548;2022-07-29T18:03:50;25.50;99.90
24638;DHT22;12773;50.162;8.548;2022-07-29T18:06:39;25.40;99.90
24638;DHT22;12773;50.162;8.548;2022-07-29T18:09:27;25.40;99.90
24638;DHT22;12773;50.162;8.548;2022-07-29T18:12:15;25.30;99.90
24638;DHT22;12773;50.162;8.548;2022-07-29T18:15:03;25.20;99.90
24638;DHT22;12773;50.162;8.548;2022-07-29T18:17:51;25.10;99.90
24638;DHT22;12773;50.162;8.548;2022-07-29T18:20:41;24.90;99.90
24638;DHT22;12773;50.162;8.548;2022-07-29T18:23:28;24.70;99.90
24638;DHT22;12773;50.162;8.548;2022-07-29T18:26:16;24.70;99.90
24638;DHT22;12773;50.162;8.548;2022-07-29T18:29:04;24.70;99.90
24638;DHT22;12773;50.162;8.548;2022-07-29T18:31:53;24.80;99.90